EHBK

Maastricht Aachen Airport

Maastricht, The Netherlands
METAR EHBK 231055Z AUTO 21014KT 9999 BKN033 OVC037 08/05 Q1022 NOSIG
Observed Flight Rules
Jan-23 @ 10:55 UTC (an hour ago) Visual Flight Rules
Wind Visibility Clouds
210° at 14 knots 10,000+ meters
  • Broken at 3,300' AGL
  • Overcast at 3,700' AGL
Temperatures Readings
Current 8°C / 46°F
Dewpoint 5°C / 41°F
Humidity 82%
Altimeter 30.18" Hg
Pressure 1022 hPa
Elevation 116
METAR EHBK 231055Z AUTO 21014KT 9999 BKN033 OVC037 08/05 Q1022 NOSIG
Observed Flight Rules
Jan-23 @ 10:55 UTC
(an hour ago)
VFR
Wind Visibility
210° at 14 knots 10,000+ meters
Clouds
  • Broken at 3,300' AGL
  • Overcast at 3,700' AGL
Temperature Dewpoint
8°C / 46°F 5°C / 41°F
Humidity Altimeter Pressure
82% 30.18" Hg 1022 hPa